KOMA

Eppley Airfield Airport

Omaha, Nebraska, USA
METAR KOMA 190552Z 14011KT 10SM BKN250 M03/M06 A2987 RMK AO2 SLP126 T10281061 10000 21039 400221111 56017
Observed Flight Rules
Jan-19 @ 05:52 UTC (an hour ago) Visual Flight Rules
Wind Visibility Clouds
140° at 11 knots 10 miles
  • Broken at 25,000' AGL
Temperatures Readings
Current -3°C / 27°F
Dewpoint -6°C / 21°F
Humidity 80%
Altimeter 29.87" Hg
Pressure 1012.6 hPa
Elevation 312
METAR KOMA 190552Z 14011KT 10SM BKN250 M03/M06 A2987 RMK AO2 SLP126 T10281061 10000 21039 400221111 56017
Observed Flight Rules
Jan-19 @ 05:52 UTC
(an hour ago)
VFR
Wind Visibility
140° at 11 knots 10 miles
Clouds
  • Broken at 25,000' AGL
Temperature Dewpoint
-3°C / 27°F -6°C / 21°F
Humidity Altimeter Pressure
80% 29.87" Hg 1012.6 hPa